Salisbury, MD

7:40 PM EDT on July 05, 2015 (GMT -0400)
Salisbury-Ocean City Wicomico Regional | | Change Station
CLOSE
Current Station
Airport
Location: Salisbury,
Elevation: 52 ft
Nearby Weather Stations

Elev 52 ft 38.34 °N, 75.51 °W | Updated 46 minutes ago

Clear
Clear
78 °F
Feels Like 78 °F
N
8
Wind Variable Wind from SE

Today
High -- | Low -- °F
--% Chance of Precip.
Yesterday
High -- | Low -- °F
Precip. -- in
5:44 AM 8:28 PM
Waning Gibbous, 81% visible
Pressure 30.12 in
Visibility 10.0 miles
Clouds Clear
Dew Point 71 °F
Humidity 79%
Rainfall 0.00 in
Snow Depth Not available.
UV 1 out of 12
Pollen 4.00 out of 12
Air Quality Not available.
Flu Activity Not available.
METAR KSBY 052254Z 13007KT 10SM CLR 26/22 A3011 RMK AO2 SLP198 T02560217

More Conditions Fewer Conditions

Pressure 30.12 in
Visibility 10.0 miles
Clouds Clear
Dew Point 71 °F
Humidity 79%
Rainfall 0.00 in
Snow Depth Not available.
UV 1 out of 12
Pollen 4.00 out of 12
Air Quality Not available.
Flu Activity Not available.
METAR KSBY 052254Z 13007KT 10SM CLR 26/22 A3011 RMK AO2 SLP198 T02560217

More Conditions Fewer Conditions

10-Day Weather Forecast

×

Almanac

Astronomy

Jul. 05, 2015 Rise Set
Actual Time
Civil Twilight
Nautical Twilight
Astronomical Twilight
Moon
Length of Visible Light
Length of Day
Tomorrow will be .
, % of the Moon is Illuminated

Today's Extremes

State Highs State Lows

Community

WunderPhotos

Upload Photos

1,835,421 photos uploaded!

WunderBlogs® & News

Nearby

Air Quality

  Air Quality AQ Index Pollutant
Not available.

Snow Depth

Station Depth Elevation

Earthquake Activity

City Distance Mag. Time & Date
Minimum magnitude displayed is 2.5.

Coastal Water Temperatures

Place Temperature

Stations

Nearby Weather Stations

Station Location Temp. Windchill Dew Point Humidity Wind Precip. Elev Updated Type